sensor_id;sensor_type;location;lat;lon;timestamp;temperature;humidity
22633;DHT22;11483;55.828;37.488;2023-02-11T00:00:13;-0.60;99.90
22633;DHT22;11483;55.828;37.488;2023-02-11T00:02:39;-0.60;99.90
22633;DHT22;11483;55.828;37.488;2023-02-11T00:05:05;-0.60;99.90
22633;DHT22;11483;55.828;37.488;2023-02-11T00:07:33;-0.70;99.90
22633;DHT22;11483;55.828;37.488;2023-02-11T00:09:59;-0.70;99.90
22633;DHT22;11483;55.828;37.488;2023-02-11T00:12:27;-0.70;99.90
22633;DHT22;11483;55.828;37.488;2023-02-11T00:14:53;-0.70;99.90
22633;DHT22;11483;55.828;37.488;2023-02-11T00:17:20;-0.70;99.90
22633;DHT22;11483;55.828;37.488;2023-02-11T00:19:49;-0.70;99.90
22633;DHT22;11483;55.828;37.488;2023-02-11T00:22:15;-0.80;99.90
22633;DHT22;11483;55.828;37.488;2023-02-11T00:24:42;-0.80;99.90
22633;DHT22;11483;55.828;37.488;2023-02-11T00:27:08;-0.90;99.90
22633;DHT22;11483;55.828;37.488;2023-02-11T00:29:33;-0.90;99.90
22633;DHT22;11483;55.828;37.488;2023-02-11T00:31:59;-1.00;99.90
22633;DHT22;11483;55.828;37.488;2023-02-11T00:34:30;-1.10;99.90
22633;DHT22;11483;55.828;37.488;2023-02-11T00:36:56;-1.10;99.90
22633;DHT22;11483;55.828;37.488;2023-02-11T00:39:22;-1.20;99.90
22633;DHT22;11483;55.828;37.488;2023-02-11T00:41:48;-1.20;99.90
22633;DHT22;11483;55.828;37.488;2023-02-11T00:44:14;-1.20;99.90
22633;DHT22;11483;55.828;37.488;2023-02-11T00:46:40;-1.30;99.90
22633;DHT22;11483;55.828;37.488;2023-02-11T00:49:05;-1.30;99.90
22633;DHT22;11483;55.828;37.488;2023-02-11T00:51:31;-1.30;99.90
22633;DHT22;11483;55.828;37.488;2023-02-11T00:53:57;-1.30;99.90
22633;DHT22;11483;55.828;37.488;2023-02-11T00:56:23;-1.30;99.90
22633;DHT22;11483;55.828;37.488;2023-02-11T00:58:49;-1.40;99.90
22633;DHT22;11483;55.828;37.488;2023-02-11T01:01:15;-1.40;99.90
22633;DHT22;11483;55.828;37.488;2023-02-11T01:03:41;-1.40;99.90
22633;DHT22;11483;55.828;37.488;2023-02-11T01:06:07;-1.50;99.90
22633;DHT22;11483;55.828;37.488;2023-02-11T01:08:33;-1.50;99.90
22633;DHT22;11483;55.828;37.488;2023-02-11T01:11:03;-1.50;99.90
22633;DHT22;11483;55.828;37.488;2023-02-11T01:13:31;-1.50;99.90
22633;DHT22;11483;55.828;37.488;2023-02-11T01:15:57;-1.50;99.90
22633;DHT22;11483;55.828;37.488;2023-02-11T01:18:24;-1.50;99.90
22633;DHT22;11483;55.828;37.488;2023-02-11T01:20:51;-1.50;99.90
22633;DHT22;11483;55.828;37.488;2023-02-11T01:23:18;-1.50;99.90
22633;DHT22;11483;55.828;37.488;2023-02-11T01:25:44;-1.60;99.90
22633;DHT22;11483;55.828;37.488;2023-02-11T01:28:27;-1.60;99.90
22633;DHT22;11483;55.828;37.488;2023-02-11T01:30:53;-1.60;99.90
22633;DHT22;11483;55.828;37.488;2023-02-11T01:33:20;-1.70;99.90
22633;DHT22;11483;55.828;37.488;2023-02-11T01:35:46;-1.70;99.90
22633;DHT22;11483;55.828;37.488;2023-02-11T01:38:18;-1.70;99.90
22633;DHT22;11483;55.828;37.488;2023-02-11T01:40:49;-1.70;99.90
22633;DHT22;11483;55.828;37.488;2023-02-11T01:43:16;-1.70;99.90
22633;DHT22;11483;55.828;37.488;2023-02-11T01:48:35;-1.70;99.90
22633;DHT22;11483;55.828;37.488;2023-02-11T01:51:23;-1.70;99.90
22633;DHT22;11483;55.828;37.488;2023-02-11T01:53:50;-1.70;99.90
22633;DHT22;11483;55.828;37.488;2023-02-11T01:56:40;-1.70;99.90
22633;DHT22;11483;55.828;37.488;2023-02-11T01:59:37;-1.60;99.90
22633;DHT22;11483;55.828;37.488;2023-02-11T02:02:09;-1.50;99.90
22633;DHT22;11483;55.828;37.488;2023-02-11T02:04:51;-1.50;99.90
22633;DHT22;11483;55.828;37.488;2023-02-11T02:07:24;-1.40;99.90
22633;DHT22;11483;55.828;37.488;2023-02-11T02:09:59;-1.40;99.90
22633;DHT22;11483;55.828;37.488;2023-02-11T02:12:27;-1.30;99.90
22633;DHT22;11483;55.828;37.488;2023-02-11T02:15:23;-1.30;99.90
22633;DHT22;11483;55.828;37.488;2023-02-11T02:17:59;-1.30;99.90
22633;DHT22;11483;55.828;37.488;2023-02-11T02:34:49;-1.10;99.90
22633;DHT22;11483;55.828;37.488;2023-02-11T02:37:26;-1.10;99.90
22633;DHT22;11483;55.828;37.488;2023-02-11T02:39:54;-1.10;99.90
22633;DHT22;11483;55.828;37.488;2023-02-11T02:42:22;-1.00;99.90
22633;DHT22;11483;55.828;37.488;2023-02-11T02:44:49;-1.00;99.90
22633;DHT22;11483;55.828;37.488;2023-02-11T02:47:16;-1.00;99.90
22633;DHT22;11483;55.828;37.488;2023-02-11T02:49:42;-1.00;99.90
22633;DHT22;11483;55.828;37.488;2023-02-11T02:52:34;-1.00;99.90
22633;DHT22;11483;55.828;37.488;2023-02-11T03:03:34;-0.90;99.90
22633;DHT22;11483;55.828;37.488;2023-02-11T03:06:02;-1.00;99.90
22633;DHT22;11483;55.828;37.488;2023-02-11T03:08:35;-1.00;99.90
22633;DHT22;11483;55.828;37.488;2023-02-11T03:11:04;-1.10;99.90
22633;DHT22;11483;55.828;37.488;2023-02-11T03:13:33;-1.00;99.90
22633;DHT22;11483;55.828;37.488;2023-02-11T03:16:07;-1.10;99.90
22633;DHT22;11483;55.828;37.488;2023-02-11T03:18:35;-1.20;99.90
22633;DHT22;11483;55.828;37.488;2023-02-11T03:21:05;-1.20;99.90
22633;DHT22;11483;55.828;37.488;2023-02-11T03:23:39;-1.20;99.90
22633;DHT22;11483;55.828;37.488;2023-02-11T03:26:25;-1.20;99.90
22633;DHT22;11483;55.828;37.488;2023-02-11T03:29:13;-1.30;99.90
22633;DHT22;11483;55.828;37.488;2023-02-11T03:31:56;-1.40;99.90
22633;DHT22;11483;55.828;37.488;2023-02-11T03:37:09;-1.50;99.90
22633;DHT22;11483;55.828;37.488;2023-02-11T03:40:01;-1.50;99.90
22633;DHT22;11483;55.828;37.488;2023-02-11T03:42:33;-1.50;99.90
22633;DHT22;11483;55.828;37.488;2023-02-11T03:45:05;-1.50;99.90
22633;DHT22;11483;55.828;37.488;2023-02-11T03:47:34;-1.50;99.90
22633;DHT22;11483;55.828;37.488;2023-02-11T03:50:04;-1.60;99.90
22633;DHT22;11483;55.828;37.488;2023-02-11T03:52:31;-1.50;99.90
22633;DHT22;11483;55.828;37.488;2023-02-11T03:54:59;-1.50;99.90
22633;DHT22;11483;55.828;37.488;2023-02-11T03:57:28;-1.60;99.90
22633;DHT22;11483;55.828;37.488;2023-02-11T03:59:56;-1.60;99.90
22633;DHT22;11483;55.828;37.488;2023-02-11T04:02:29;-1.60;99.90
22633;DHT22;11483;55.828;37.488;2023-02-11T04:04:56;-1.70;99.90
22633;DHT22;11483;55.828;37.488;2023-02-11T04:07:22;-1.70;99.90
22633;DHT22;11483;55.828;37.488;2023-02-11T04:09:49;-1.80;99.90
22633;DHT22;11483;55.828;37.488;2023-02-11T04:12:15;-1.90;99.90
22633;DHT22;11483;55.828;37.488;2023-02-11T04:14:41;-1.90;99.90
22633;DHT22;11483;55.828;37.488;2023-02-11T04:17:06;-2.00;99.90
22633;DHT22;11483;55.828;37.488;2023-02-11T04:19:32;-2.00;99.90
22633;DHT22;11483;55.828;37.488;2023-02-11T04:21:58;-2.00;99.90
22633;DHT22;11483;55.828;37.488;2023-02-11T04:24:24;-2.00;99.90
22633;DHT22;11483;55.828;37.488;2023-02-11T04:26:50;-2.10;99.90
22633;DHT22;11483;55.828;37.488;2023-02-11T04:29:16;-2.10;99.90
22633;DHT22;11483;55.828;37.488;2023-02-11T04:31:41;-2.10;99.90
22633;DHT22;11483;55.828;37.488;2023-02-11T04:34:07;-2.20;99.90
22633;DHT22;11483;55.828;37.488;2023-02-11T04:36:33;-2.20;99.90
22633;DHT22;11483;55.828;37.488;2023-02-11T04:38:59;-2.30;99.90
22633;DHT22;11483;55.828;37.488;2023-02-11T04:41:25;-2.30;99.90
22633;DHT22;11483;55.828;37.488;2023-02-11T04:43:50;-2.30;99.90
22633;DHT22;11483;55.828;37.488;2023-02-11T04:46:16;-2.30;99.90
22633;DHT22;11483;55.828;37.488;2023-02-11T04:48:42;-2.30;99.90
22633;DHT22;11483;55.828;37.488;2023-02-11T04:51:08;-2.30;99.90
22633;DHT22;11483;55.828;37.488;2023-02-11T04:53:34;-2.30;99.90
22633;DHT22;11483;55.828;37.488;2023-02-11T04:56:00;-2.30;99.90
22633;DHT22;11483;55.828;37.488;2023-02-11T04:58:26;-2.30;99.90
22633;DHT22;11483;55.828;37.488;2023-02-11T05:00:51;-2.30;99.90
22633;DHT22;11483;55.828;37.488;2023-02-11T05:03:17;-2.30;99.90
22633;DHT22;11483;55.828;37.488;2023-02-11T05:05:43;-2.20;99.90
22633;DHT22;11483;55.828;37.488;2023-02-11T05:08:10;-2.30;99.90
22633;DHT22;11483;55.828;37.488;2023-02-11T05:10:36;-2.30;99.90
22633;DHT22;11483;55.828;37.488;2023-02-11T05:13:02;-2.20;99.90
22633;DHT22;11483;55.828;37.488;2023-02-11T05:15:28;-2.30;99.90
22633;DHT22;11483;55.828;37.488;2023-02-11T05:17:54;-2.30;99.90
22633;DHT22;11483;55.828;37.488;2023-02-11T05:20:20;-2.30;99.90
22633;DHT22;11483;55.828;37.488;2023-02-11T05:22:46;-2.30;99.90
22633;DHT22;11483;55.828;37.488;2023-02-11T05:25:13;-2.20;99.90
22633;DHT22;11483;55.828;37.488;2023-02-11T05:27:38;-2.20;99.90
22633;DHT22;11483;55.828;37.488;2023-02-11T05:30:05;-2.10;99.90
22633;DHT22;11483;55.828;37.488;2023-02-11T05:32:32;-2.10;99.90
22633;DHT22;11483;55.828;37.488;2023-02-11T05:34:58;-2.00;99.90
22633;DHT22;11483;55.828;37.488;2023-02-11T05:37:24;-2.00;99.90
22633;DHT22;11483;55.828;37.488;2023-02-11T05:39:50;-1.90;99.90
22633;DHT22;11483;55.828;37.488;2023-02-11T05:42:15;-1.80;99.90
22633;DHT22;11483;55.828;37.488;2023-02-11T05:44:41;-1.80;99.90
22633;DHT22;11483;55.828;37.488;2023-02-11T05:47:07;-1.70;99.90
22633;DHT22;11483;55.828;37.488;2023-02-11T05:49:34;-1.80;99.90
22633;DHT22;11483;55.828;37.488;2023-02-11T05:52:00;-1.80;99.90
22633;DHT22;11483;55.828;37.488;2023-02-11T05:54:26;-1.70;99.90
22633;DHT22;11483;55.828;37.488;2023-02-11T05:56:51;-1.70;99.90
22633;DHT22;11483;55.828;37.488;2023-02-11T05:59:18;-1.60;99.90
22633;DHT22;11483;55.828;37.488;2023-02-11T06:01:44;-1.60;99.90
22633;DHT22;11483;55.828;37.488;2023-02-11T06:04:09;-1.60;99.90
22633;DHT22;11483;55.828;37.488;2023-02-11T06:06:35;-1.60;99.90
22633;DHT22;11483;55.828;37.488;2023-02-11T06:09:02;-1.60;99.90
22633;DHT22;11483;55.828;37.488;2023-02-11T06:11:27;-1.60;99.90
22633;DHT22;11483;55.828;37.488;2023-02-11T06:13:53;-1.50;99.90
22633;DHT22;11483;55.828;37.488;2023-02-11T06:16:19;-1.40;99.90
22633;DHT22;11483;55.828;37.488;2023-02-11T06:18:45;-1.30;99.90
22633;DHT22;11483;55.828;37.488;2023-02-11T06:21:11;-1.40;99.90
22633;DHT22;11483;55.828;37.488;2023-02-11T06:23:37;-1.30;99.90
22633;DHT22;11483;55.828;37.488;2023-02-11T06:26:05;-1.30;99.90
22633;DHT22;11483;55.828;37.488;2023-02-11T06:28:32;-1.30;99.90
22633;DHT22;11483;55.828;37.488;2023-02-11T06:31:04;-1.30;99.90
22633;DHT22;11483;55.828;37.488;2023-02-11T06:33:31;-1.10;99.90
22633;DHT22;11483;55.828;37.488;2023-02-11T06:35:57;-1.10;99.90
22633;DHT22;11483;55.828;37.488;2023-02-11T06:38:23;-1.20;99.90
22633;DHT22;11483;55.828;37.488;2023-02-11T06:40:49;-1.30;99.90
22633;DHT22;11483;55.828;37.488;2023-02-11T06:43:15;-1.30;99.90
22633;DHT22;11483;55.828;37.488;2023-02-11T06:45:41;-1.30;99.90
22633;DHT22;11483;55.828;37.488;2023-02-11T06:48:07;-1.30;99.90
22633;DHT22;11483;55.828;37.488;2023-02-11T06:50:33;-1.30;99.90
22633;DHT22;11483;55.828;37.488;2023-02-11T06:52:59;-1.30;99.90
22633;DHT22;11483;55.828;37.488;2023-02-11T06:55:26;-1.10;99.90
22633;DHT22;11483;55.828;37.488;2023-02-11T06:57:52;-1.10;99.90
22633;DHT22;11483;55.828;37.488;2023-02-11T07:00:18;-1.10;99.90
22633;DHT22;11483;55.828;37.488;2023-02-11T07:02:43;-1.00;99.90
22633;DHT22;11483;55.828;37.488;2023-02-11T07:05:10;-1.00;99.90
22633;DHT22;11483;55.828;37.488;2023-02-11T07:07:36;-0.90;99.90
22633;DHT22;11483;55.828;37.488;2023-02-11T07:10:02;-0.90;99.90
22633;DHT22;11483;55.828;37.488;2023-02-11T07:12:29;-0.90;99.90
22633;DHT22;11483;55.828;37.488;2023-02-11T07:14:56;-0.80;99.90
22633;DHT22;11483;55.828;37.488;2023-02-11T07:17:22;-0.70;99.90
22633;DHT22;11483;55.828;37.488;2023-02-11T07:19:48;-0.60;99.90
22633;DHT22;11483;55.828;37.488;2023-02-11T07:22:14;-0.60;99.90
22633;DHT22;11483;55.828;37.488;2023-02-11T07:24:40;-0.50;99.90
22633;DHT22;11483;55.828;37.488;2023-02-11T07:27:06;-0.40;99.90
22633;DHT22;11483;55.828;37.488;2023-02-11T07:29:32;-0.40;99.90
22633;DHT22;11483;55.828;37.488;2023-02-11T07:31:58;-0.30;99.90
22633;DHT22;11483;55.828;37.488;2023-02-11T07:34:24;-0.30;99.90
22633;DHT22;11483;55.828;37.488;2023-02-11T07:36:50;-0.20;99.90
22633;DHT22;11483;55.828;37.488;2023-02-11T07:39:16;-0.20;99.90
22633;DHT22;11483;55.828;37.488;2023-02-11T07:41:41;-0.20;99.90
22633;DHT22;11483;55.828;37.488;2023-02-11T07:44:09;-0.10;99.90
22633;DHT22;11483;55.828;37.488;2023-02-11T07:46:35;-0.10;99.90
22633;DHT22;11483;55.828;37.488;2023-02-11T07:49:00;-0.10;99.90
22633;DHT22;11483;55.828;37.488;2023-02-11T07:51:28;-0.10;99.90
22633;DHT22;11483;55.828;37.488;2023-02-11T07:53:56;0.00;99.90
22633;DHT22;11483;55.828;37.488;2023-02-11T07:56:22;-0.10;99.90
22633;DHT22;11483;55.828;37.488;2023-02-11T07:58:49;-0.20;99.90
22633;DHT22;11483;55.828;37.488;2023-02-11T08:01:23;-0.40;99.90
22633;DHT22;11483;55.828;37.488;2023-02-11T08:03:52;-0.40;99.90
22633;DHT22;11483;55.828;37.488;2023-02-11T08:06:19;-0.20;99.90
22633;DHT22;11483;55.828;37.488;2023-02-11T08:08:46;-0.20;99.90
22633;DHT22;11483;55.828;37.488;2023-02-11T08:11:15;-0.10;99.90
22633;DHT22;11483;55.828;37.488;2023-02-11T08:13:41;0.10;99.90
22633;DHT22;11483;55.828;37.488;2023-02-11T08:16:09;-0.10;99.90
22633;DHT22;11483;55.828;37.488;2023-02-11T08:18:41;0.00;99.90
22633;DHT22;11483;55.828;37.488;2023-02-11T08:21:08;0.60;99.90
22633;DHT22;11483;55.828;37.488;2023-02-11T08:23:38;0.70;99.90
22633;DHT22;11483;55.828;37.488;2023-02-11T08:26:07;0.40;99.90
22633;DHT22;11483;55.828;37.488;2023-02-11T08:28:38;0.30;99.90
22633;DHT22;11483;55.828;37.488;2023-02-11T08:31:10;0.20;99.90
22633;DHT22;11483;55.828;37.488;2023-02-11T08:33:37;0.20;99.90
22633;DHT22;11483;55.828;37.488;2023-02-11T08:36:09;0.20;99.90
22633;DHT22;11483;55.828;37.488;2023-02-11T08:38:36;0.20;99.90
22633;DHT22;11483;55.828;37.488;2023-02-11T08:41:02;0.10;99.90
22633;DHT22;11483;55.828;37.488;2023-02-11T08:43:28;0.10;99.90
22633;DHT22;11483;55.828;37.488;2023-02-11T08:45:54;0.00;99.90
22633;DHT22;11483;55.828;37.488;2023-02-11T08:48:20;0.00;99.90
22633;DHT22;11483;55.828;37.488;2023-02-11T08:50:46;0.00;99.90
22633;DHT22;11483;55.828;37.488;2023-02-11T08:53:11;-0.10;99.90
22633;DHT22;11483;55.828;37.488;2023-02-11T08:55:38;-0.20;99.90
22633;DHT22;11483;55.828;37.488;2023-02-11T08:58:03;-0.30;99.90
22633;DHT22;11483;55.828;37.488;2023-02-11T09:00:30;-0.40;99.90
22633;DHT22;11483;55.828;37.488;2023-02-11T09:02:55;-0.50;99.90
22633;DHT22;11483;55.828;37.488;2023-02-11T09:05:22;-0.30;99.90
22633;DHT22;11483;55.828;37.488;2023-02-11T09:07:48;-0.30;99.90
22633;DHT22;11483;55.828;37.488;2023-02-11T09:10:14;-0.20;99.90
22633;DHT22;11483;55.828;37.488;2023-02-11T09:12:39;-0.20;99.90
22633;DHT22;11483;55.828;37.488;2023-02-11T09:15:06;-0.20;99.90
22633;DHT22;11483;55.828;37.488;2023-02-11T09:17:32;-0.10;99.90
22633;DHT22;11483;55.828;37.488;2023-02-11T09:19:58;-0.30;99.90
22633;DHT22;11483;55.828;37.488;2023-02-11T09:22:24;-0.40;99.90
22633;DHT22;11483;55.828;37.488;2023-02-11T09:24:50;-0.30;99.90
22633;DHT22;11483;55.828;37.488;2023-02-11T09:27:15;-0.20;99.90
22633;DHT22;11483;55.828;37.488;2023-02-11T09:29:41;-0.20;99.90
22633;DHT22;11483;55.828;37.488;2023-02-11T09:32:07;-0.30;99.90
22633;DHT22;11483;55.828;37.488;2023-02-11T09:34:33;-0.30;99.90
22633;DHT22;11483;55.828;37.488;2023-02-11T09:36:59;-0.40;99.90
22633;DHT22;11483;55.828;37.488;2023-02-11T09:39:24;-0.50;99.90
22633;DHT22;11483;55.828;37.488;2023-02-11T09:42:17;-0.50;99.90
22633;DHT22;11483;55.828;37.488;2023-02-11T09:44:45;-0.40;99.90
22633;DHT22;11483;55.828;37.488;2023-02-11T09:47:37;-0.40;99.90
22633;DHT22;11483;55.828;37.488;2023-02-11T09:50:39;-0.50;99.90
22633;DHT22;11483;55.828;37.488;2023-02-11T09:55:44;-0.50;99.90
22633;DHT22;11483;55.828;37.488;2023-02-11T09:58:13;-0.50;99.90
22633;DHT22;11483;55.828;37.488;2023-02-11T10:00:47;-0.50;99.90
22633;DHT22;11483;55.828;37.488;2023-02-11T10:20:07;-0.50;99.90
22633;DHT22;11483;55.828;37.488;2023-02-11T10:22:42;-0.50;99.90
22633;DHT22;11483;55.828;37.488;2023-02-11T10:25:23;-0.60;99.90
22633;DHT22;11483;55.828;37.488;2023-02-11T10:27:50;-0.50;99.90
22633;DHT22;11483;55.828;37.488;2023-02-11T10:30:32;-0.50;99.90
22633;DHT22;11483;55.828;37.488;2023-02-11T10:35:49;-0.40;99.90
22633;DHT22;11483;55.828;37.488;2023-02-11T10:38:15;-0.40;99.90
22633;DHT22;11483;55.828;37.488;2023-02-11T10:40:41;-0.40;99.90
22633;DHT22;11483;55.828;37.488;2023-02-11T10:43:12;-0.40;99.90
22633;DHT22;11483;55.828;37.488;2023-02-11T10:45:42;-0.30;99.90
22633;DHT22;11483;55.828;37.488;2023-02-11T10:48:46;-0.20;99.90
22633;DHT22;11483;55.828;37.488;2023-02-11T10:51:24;-0.20;99.90
22633;DHT22;11483;55.828;37.488;2023-02-11T10:54:11;-0.20;99.90
22633;DHT22;11483;55.828;37.488;2023-02-11T10:56:49;-0.30;99.90
22633;DHT22;11483;55.828;37.488;2023-02-11T10:59:22;-0.10;99.90
22633;DHT22;11483;55.828;37.488;2023-02-11T11:01:52;-0.10;99.90
22633;DHT22;11483;55.828;37.488;2023-02-11T11:04:36;-0.20;99.90
22633;DHT22;11483;55.828;37.488;2023-02-11T11:07:17;-0.20;99.90
22633;DHT22;11483;55.828;37.488;2023-02-11T11:09:50;-0.30;99.90
22633;DHT22;11483;55.828;37.488;2023-02-11T11:12:32;-0.20;99.90
22633;DHT22;11483;55.828;37.488;2023-02-11T11:15:19;-0.30;99.90
22633;DHT22;11483;55.828;37.488;2023-02-11T11:17:51;-0.20;99.90
22633;DHT22;11483;55.828;37.488;2023-02-11T11:20:33;-0.10;99.90
22633;DHT22;11483;55.828;37.488;2023-02-11T11:23:30;-0.10;99.90
22633;DHT22;11483;55.828;37.488;2023-02-11T11:26:09;0.00;99.90
22633;DHT22;11483;55.828;37.488;2023-02-11T11:28:51;0.00;99.90
22633;DHT22;11483;55.828;37.488;2023-02-11T11:31:21;0.00;99.90
22633;DHT22;11483;55.828;37.488;2023-02-11T11:33:47;0.20;99.90
22633;DHT22;11483;55.828;37.488;2023-02-11T11:36:19;0.20;99.90
22633;DHT22;11483;55.828;37.488;2023-02-11T11:38:53;0.10;99.90
22633;DHT22;11483;55.828;37.488;2023-02-11T11:46:41;0.20;99.90
22633;DHT22;11483;55.828;37.488;2023-02-11T11:54:27;0.00;99.90
22633;DHT22;11483;55.828;37.488;2023-02-11T11:57:03;0.00;99.90
22633;DHT22;11483;55.828;37.488;2023-02-11T11:59:31;0.00;99.90
22633;DHT22;11483;55.828;37.488;2023-02-11T12:05:01;-0.10;99.90
22633;DHT22;11483;55.828;37.488;2023-02-11T12:21:06;-0.30;99.90
22633;DHT22;11483;55.828;37.488;2023-02-11T12:24:15;-0.40;99.90
22633;DHT22;11483;55.828;37.488;2023-02-11T12:37:41;-0.30;99.90
22633;DHT22;11483;55.828;37.488;2023-02-11T12:40:17;-0.40;99.90
22633;DHT22;11483;55.828;37.488;2023-02-11T12:53:54;-0.50;99.90
22633;DHT22;11483;55.828;37.488;2023-02-11T12:59:10;-0.60;99.90
22633;DHT22;11483;55.828;37.488;2023-02-11T13:01:42;-0.60;99.90
22633;DHT22;11483;55.828;37.488;2023-02-11T13:06:59;-0.70;99.90
22633;DHT22;11483;55.828;37.488;2023-02-11T13:09:34;-0.80;99.90
22633;DHT22;11483;55.828;37.488;2023-02-11T13:12:05;-0.80;99.90
22633;DHT22;11483;55.828;37.488;2023-02-11T13:14:53;-0.90;99.90
22633;DHT22;11483;55.828;37.488;2023-02-11T13:17:39;-0.90;99.90
22633;DHT22;11483;55.828;37.488;2023-02-11T13:20:35;-0.90;99.90
22633;DHT22;11483;55.828;37.488;2023-02-11T13:26:17;-0.70;99.90
22633;DHT22;11483;55.828;37.488;2023-02-11T13:28:46;-0.80;99.90
22633;DHT22;11483;55.828;37.488;2023-02-11T13:31:14;-0.80;99.90
22633;DHT22;11483;55.828;37.488;2023-02-11T13:33:41;-0.70;99.90
22633;DHT22;11483;55.828;37.488;2023-02-11T13:36:12;-0.80;99.90
22633;DHT22;11483;55.828;37.488;2023-02-11T13:38:39;-0.70;99.90
22633;DHT22;11483;55.828;37.488;2023-02-11T13:41:38;-0.80;99.90
22633;DHT22;11483;55.828;37.488;2023-02-11T13:47:13;-0.80;99.90
22633;DHT22;11483;55.828;37.488;2023-02-11T13:49:50;-0.90;99.90
22633;DHT22;11483;55.828;37.488;2023-02-11T13:52:27;-0.90;99.90
22633;DHT22;11483;55.828;37.488;2023-02-11T13:54:57;-0.90;99.90
22633;DHT22;11483;55.828;37.488;2023-02-11T13:57:30;-0.90;99.90
22633;DHT22;11483;55.828;37.488;2023-02-11T14:00:41;-0.90;99.90
22633;DHT22;11483;55.828;37.488;2023-02-11T14:19:34;-1.10;99.90
22633;DHT22;11483;55.828;37.488;2023-02-11T14:22:24;-1.10;99.90
22633;DHT22;11483;55.828;37.488;2023-02-11T14:25:02;-1.10;99.90
22633;DHT22;11483;55.828;37.488;2023-02-11T14:28:10;-1.10;99.90
22633;DHT22;11483;55.828;37.488;2023-02-11T14:33:54;-1.10;99.90
22633;DHT22;11483;55.828;37.488;2023-02-11T14:41:51;-1.10;99.90
22633;DHT22;11483;55.828;37.488;2023-02-11T14:44:24;-1.10;99.90
22633;DHT22;11483;55.828;37.488;2023-02-11T14:46:53;-1.10;99.90
22633;DHT22;11483;55.828;37.488;2023-02-11T14:49:26;-1.00;99.90
22633;DHT22;11483;55.828;37.488;2023-02-11T14:54:42;-1.10;99.90
22633;DHT22;11483;55.828;37.488;2023-02-11T14:57:13;-1.00;99.90
22633;DHT22;11483;55.828;37.488;2023-02-11T14:59:55;-1.00;99.90
22633;DHT22;11483;55.828;37.488;2023-02-11T15:02:29;-1.10;99.90
22633;DHT22;11483;55.828;37.488;2023-02-11T15:05:17;-1.00;99.90
22633;DHT22;11483;55.828;37.488;2023-02-11T15:07:55;-1.10;99.90
22633;DHT22;11483;55.828;37.488;2023-02-11T15:12:57;-1.00;99.90
22633;DHT22;11483;55.828;37.488;2023-02-11T15:15:25;-1.00;99.90
22633;DHT22;11483;55.828;37.488;2023-02-11T15:17:52;-1.00;99.90
22633;DHT22;11483;55.828;37.488;2023-02-11T15:20:25;-1.00;99.90
22633;DHT22;11483;55.828;37.488;2023-02-11T15:22:58;-1.00;99.90
22633;DHT22;11483;55.828;37.488;2023-02-11T15:25:24;-1.00;99.90
22633;DHT22;11483;55.828;37.488;2023-02-11T15:27:54;-1.00;99.90
22633;DHT22;11483;55.828;37.488;2023-02-11T15:35:26;-1.00;99.90
22633;DHT22;11483;55.828;37.488;2023-02-11T15:37:54;-1.00;99.90
22633;DHT22;11483;55.828;37.488;2023-02-11T15:40:23;-1.00;99.90
22633;DHT22;11483;55.828;37.488;2023-02-11T15:42:58;-1.00;99.90
22633;DHT22;11483;55.828;37.488;2023-02-11T15:45:42;-0.90;99.90
22633;DHT22;11483;55.828;37.488;2023-02-11T15:51:11;-0.90;99.90
22633;DHT22;11483;55.828;37.488;2023-02-11T15:54:02;-0.90;99.90
22633;DHT22;11483;55.828;37.488;2023-02-11T15:59:16;-0.90;99.90
22633;DHT22;11483;55.828;37.488;2023-02-11T16:01:46;-0.80;99.90
22633;DHT22;11483;55.828;37.488;2023-02-11T16:04:23;-0.80;99.90
22633;DHT22;11483;55.828;37.488;2023-02-11T16:10:36;-0.70;99.90
22633;DHT22;11483;55.828;37.488;2023-02-11T16:18:26;-0.80;99.90
22633;DHT22;11483;55.828;37.488;2023-02-11T16:20:53;-0.70;99.90
22633;DHT22;11483;55.828;37.488;2023-02-11T16:23:26;-0.80;99.90
22633;DHT22;11483;55.828;37.488;2023-02-11T16:26:02;-0.80;99.90
22633;DHT22;11483;55.828;37.488;2023-02-11T16:28:31;-0.80;99.90
22633;DHT22;11483;55.828;37.488;2023-02-11T16:30:58;-0.70;99.90
22633;DHT22;11483;55.828;37.488;2023-02-11T16:33:30;-0.80;99.90
22633;DHT22;11483;55.828;37.488;2023-02-11T16:35:56;-0.70;99.90
22633;DHT22;11483;55.828;37.488;2023-02-11T16:38:22;-0.70;99.90
22633;DHT22;11483;55.828;37.488;2023-02-11T16:41:06;-0.80;99.90
22633;DHT22;11483;55.828;37.488;2023-02-11T16:43:38;-0.80;99.90
22633;DHT22;11483;55.828;37.488;2023-02-11T16:46:04;-0.70;99.90
22633;DHT22;11483;55.828;37.488;2023-02-11T16:48:31;-0.70;99.90
22633;DHT22;11483;55.828;37.488;2023-02-11T16:50:57;-0.70;99.90
22633;DHT22;11483;55.828;37.488;2023-02-11T16:53:24;-0.70;99.90
22633;DHT22;11483;55.828;37.488;2023-02-11T16:55:51;-0.70;99.90
22633;DHT22;11483;55.828;37.488;2023-02-11T16:58:17;-0.70;99.90
22633;DHT22;11483;55.828;37.488;2023-02-11T17:00:45;-0.60;99.90
22633;DHT22;11483;55.828;37.488;2023-02-11T17:03:19;-0.70;99.90
22633;DHT22;11483;55.828;37.488;2023-02-11T17:05:46;-0.70;99.90
22633;DHT22;11483;55.828;37.488;2023-02-11T17:08:13;-0.70;99.90
22633;DHT22;11483;55.828;37.488;2023-02-11T17:10:39;-0.70;99.90
22633;DHT22;11483;55.828;37.488;2023-02-11T17:13:31;-0.70;99.90
22633;DHT22;11483;55.828;37.488;2023-02-11T17:15:57;-0.60;99.90
22633;DHT22;11483;55.828;37.488;2023-02-11T17:18:23;-0.60;99.90
22633;DHT22;11483;55.828;37.488;2023-02-11T17:20:49;-0.50;99.90
22633;DHT22;11483;55.828;37.488;2023-02-11T17:23:18;-0.60;99.90
22633;DHT22;11483;55.828;37.488;2023-02-11T17:25:56;-0.60;99.90
22633;DHT22;11483;55.828;37.488;2023-02-11T17:28:28;-0.50;99.90
22633;DHT22;11483;55.828;37.488;2023-02-11T17:31:06;-0.50;99.90
22633;DHT22;11483;55.828;37.488;2023-02-11T17:33:33;-0.60;99.90
22633;DHT22;11483;55.828;37.488;2023-02-11T17:36:02;-0.50;99.90
22633;DHT22;11483;55.828;37.488;2023-02-11T17:38:39;-0.50;99.90
22633;DHT22;11483;55.828;37.488;2023-02-11T17:41:05;-0.40;99.90
22633;DHT22;11483;55.828;37.488;2023-02-11T17:43:31;-0.40;99.90
22633;DHT22;11483;55.828;37.488;2023-02-11T17:45:57;-0.40;99.90
22633;DHT22;11483;55.828;37.488;2023-02-11T17:48:28;-0.40;99.90
22633;DHT22;11483;55.828;37.488;2023-02-11T17:50:56;-0.50;99.90
22633;DHT22;11483;55.828;37.488;2023-02-11T17:53:25;-0.40;99.90
22633;DHT22;11483;55.828;37.488;2023-02-11T17:55:52;-0.40;99.90
22633;DHT22;11483;55.828;37.488;2023-02-11T17:58:19;-0.40;99.90
22633;DHT22;11483;55.828;37.488;2023-02-11T18:00:44;-0.40;99.90
22633;DHT22;11483;55.828;37.488;2023-02-11T18:03:10;-0.50;99.90
22633;DHT22;11483;55.828;37.488;2023-02-11T18:05:42;-0.50;99.90
22633;DHT22;11483;55.828;37.488;2023-02-11T18:08:07;-0.40;99.90
22633;DHT22;11483;55.828;37.488;2023-02-11T18:10:33;-0.40;99.90
22633;DHT22;11483;55.828;37.488;2023-02-11T18:13:00;-0.40;99.90
22633;DHT22;11483;55.828;37.488;2023-02-11T18:15:26;-0.40;99.90
22633;DHT22;11483;55.828;37.488;2023-02-11T18:17:52;-0.40;99.90